sensor_id;sensor_type;location;lat;lon;timestamp;temperature;humidity
15003;DHT22;7597;53.590;10.020;2022-07-18T00:01:52;13.80;1.00
15003;DHT22;7597;53.590;10.020;2022-07-18T00:04:18;13.80;1.00
15003;DHT22;7597;53.590;10.020;2022-07-18T00:06:45;13.90;1.00
15003;DHT22;7597;53.590;10.020;2022-07-18T00:09:12;13.80;1.00
15003;DHT22;7597;53.590;10.020;2022-07-18T00:11:38;13.80;1.00
15003;DHT22;7597;53.590;10.020;2022-07-18T00:14:05;13.70;1.00
15003;DHT22;7597;53.590;10.020;2022-07-18T00:16:32;13.70;1.00
15003;DHT22;7597;53.590;10.020;2022-07-18T00:18:58;13.70;1.00
15003;DHT22;7597;53.590;10.020;2022-07-18T00:21:25;13.70;1.00
15003;DHT22;7597;53.590;10.020;2022-07-18T00:23:52;13.80;1.00
15003;DHT22;7597;53.590;10.020;2022-07-18T00:26:19;13.70;1.00
15003;DHT22;7597;53.590;10.020;2022-07-18T00:28:46;13.70;1.00
15003;DHT22;7597;53.590;10.020;2022-07-18T00:31:12;13.70;1.00
15003;DHT22;7597;53.590;10.020;2022-07-18T00:33:39;13.70;1.00
15003;DHT22;7597;53.590;10.020;2022-07-18T00:36:06;13.70;1.00
15003;DHT22;7597;53.590;10.020;2022-07-18T00:38:32;13.70;1.00
15003;DHT22;7597;53.590;10.020;2022-07-18T00:40:59;13.70;1.00
15003;DHT22;7597;53.590;10.020;2022-07-18T00:43:26;13.70;1.00
15003;DHT22;7597;53.590;10.020;2022-07-18T00:45:52;13.70;1.00
15003;DHT22;7597;53.590;10.020;2022-07-18T00:48:19;13.70;1.00
15003;DHT22;7597;53.590;10.020;2022-07-18T00:50:46;13.70;1.00
15003;DHT22;7597;53.590;10.020;2022-07-18T00:53:13;13.70;1.00
15003;DHT22;7597;53.590;10.020;2022-07-18T00:55:40;13.60;1.00
15003;DHT22;7597;53.590;10.020;2022-07-18T00:58:07;13.70;1.00
15003;DHT22;7597;53.590;10.020;2022-07-18T01:00:34;13.70;1.00
15003;DHT22;7597;53.590;10.020;2022-07-18T01:03:06;13.70;1.00
15003;DHT22;7597;53.590;10.020;2022-07-18T01:05:32;13.80;1.00
15003;DHT22;7597;53.590;10.020;2022-07-18T01:07:59;13.70;1.00
15003;DHT22;7597;53.590;10.020;2022-07-18T01:10:26;13.70;1.00
15003;DHT22;7597;53.590;10.020;2022-07-18T01:12:52;13.60;1.00
15003;DHT22;7597;53.590;10.020;2022-07-18T01:15:19;13.60;1.00
15003;DHT22;7597;53.590;10.020;2022-07-18T01:17:46;13.50;1.00
15003;DHT22;7597;53.590;10.020;2022-07-18T01:20:12;13.50;1.00
15003;DHT22;7597;53.590;10.020;2022-07-18T01:22:39;13.40;1.00
15003;DHT22;7597;53.590;10.020;2022-07-18T01:25:06;13.40;1.00
15003;DHT22;7597;53.590;10.020;2022-07-18T01:27:33;13.40;1.00
15003;DHT22;7597;53.590;10.020;2022-07-18T01:30:00;13.30;1.00
15003;DHT22;7597;53.590;10.020;2022-07-18T01:32:26;13.30;1.00
15003;DHT22;7597;53.590;10.020;2022-07-18T01:34:53;13.40;1.00
15003;DHT22;7597;53.590;10.020;2022-07-18T01:37:19;13.30;1.00
15003;DHT22;7597;53.590;10.020;2022-07-18T01:39:46;13.30;1.00
15003;DHT22;7597;53.590;10.020;2022-07-18T01:42:13;13.30;1.00
15003;DHT22;7597;53.590;10.020;2022-07-18T01:44:39;13.30;1.00
15003;DHT22;7597;53.590;10.020;2022-07-18T01:47:07;13.30;1.00
15003;DHT22;7597;53.590;10.020;2022-07-18T01:49:33;13.30;1.00
15003;DHT22;7597;53.590;10.020;2022-07-18T01:52:00;13.30;1.00
15003;DHT22;7597;53.590;10.020;2022-07-18T01:54:28;13.20;1.00
15003;DHT22;7597;53.590;10.020;2022-07-18T01:56:53;13.30;1.00
15003;DHT22;7597;53.590;10.020;2022-07-18T01:59:20;13.20;1.00
15003;DHT22;7597;53.590;10.020;2022-07-18T02:01:47;13.30;1.00
15003;DHT22;7597;53.590;10.020;2022-07-18T02:04:13;13.30;1.00
15003;DHT22;7597;53.590;10.020;2022-07-18T02:06:40;13.20;1.00
15003;DHT22;7597;53.590;10.020;2022-07-18T02:09:07;13.30;1.00
15003;DHT22;7597;53.590;10.020;2022-07-18T02:11:34;13.30;1.00
15003;DHT22;7597;53.590;10.020;2022-07-18T02:14:00;13.30;1.00
15003;DHT22;7597;53.590;10.020;2022-07-18T02:16:27;13.20;1.00
15003;DHT22;7597;53.590;10.020;2022-07-18T02:18:53;13.20;1.00
15003;DHT22;7597;53.590;10.020;2022-07-18T02:21:20;13.20;1.00
15003;DHT22;7597;53.590;10.020;2022-07-18T02:23:47;13.20;1.00
15003;DHT22;7597;53.590;10.020;2022-07-18T02:26:13;13.20;1.00
15003;DHT22;7597;53.590;10.020;2022-07-18T02:28:40;13.20;1.00
15003;DHT22;7597;53.590;10.020;2022-07-18T02:31:06;13.30;1.00
15003;DHT22;7597;53.590;10.020;2022-07-18T02:33:33;13.30;1.00
15003;DHT22;7597;53.590;10.020;2022-07-18T02:36:00;13.30;1.00
15003;DHT22;7597;53.590;10.020;2022-07-18T02:38:26;13.30;1.00
15003;DHT22;7597;53.590;10.020;2022-07-18T02:40:53;13.30;1.00
15003;DHT22;7597;53.590;10.020;2022-07-18T02:43:20;13.30;1.00
15003;DHT22;7597;53.590;10.020;2022-07-18T02:45:46;13.30;1.00
15003;DHT22;7597;53.590;10.020;2022-07-18T02:48:13;13.30;1.00
15003;DHT22;7597;53.590;10.020;2022-07-18T02:50:39;13.30;1.00
15003;DHT22;7597;53.590;10.020;2022-07-18T02:53:06;13.20;1.00
15003;DHT22;7597;53.590;10.020;2022-07-18T02:55:33;13.20;1.00
15003;DHT22;7597;53.590;10.020;2022-07-18T02:57:59;13.10;1.00
15003;DHT22;7597;53.590;10.020;2022-07-18T03:00:26;13.00;1.00
15003;DHT22;7597;53.590;10.020;2022-07-18T03:02:53;13.00;1.00
15003;DHT22;7597;53.590;10.020;2022-07-18T03:05:19;13.00;1.00
15003;DHT22;7597;53.590;10.020;2022-07-18T03:07:46;13.00;1.00
15003;DHT22;7597;53.590;10.020;2022-07-18T03:10:13;13.10;1.00
15003;DHT22;7597;53.590;10.020;2022-07-18T03:12:41;13.10;1.00
15003;DHT22;7597;53.590;10.020;2022-07-18T03:15:07;13.20;1.00
15003;DHT22;7597;53.590;10.020;2022-07-18T03:17:34;13.20;1.00
15003;DHT22;7597;53.590;10.020;2022-07-18T03:20:01;13.20;1.00
15003;DHT22;7597;53.590;10.020;2022-07-18T03:22:28;13.30;1.00
15003;DHT22;7597;53.590;10.020;2022-07-18T03:24:54;13.30;1.00
15003;DHT22;7597;53.590;10.020;2022-07-18T03:27:21;13.40;1.00
15003;DHT22;7597;53.590;10.020;2022-07-18T03:29:48;13.40;1.00
15003;DHT22;7597;53.590;10.020;2022-07-18T03:32:14;13.40;1.00
15003;DHT22;7597;53.590;10.020;2022-07-18T03:34:41;13.50;1.00
15003;DHT22;7597;53.590;10.020;2022-07-18T03:37:08;13.50;1.00
15003;DHT22;7597;53.590;10.020;2022-07-18T03:39:34;13.60;1.00
15003;DHT22;7597;53.590;10.020;2022-07-18T03:42:01;13.60;1.00
15003;DHT22;7597;53.590;10.020;2022-07-18T03:44:28;13.70;1.00
15003;DHT22;7597;53.590;10.020;2022-07-18T03:46:54;13.80;1.00
15003;DHT22;7597;53.590;10.020;2022-07-18T03:49:21;13.80;1.00
15003;DHT22;7597;53.590;10.020;2022-07-18T03:51:47;13.90;1.00
15003;DHT22;7597;53.590;10.020;2022-07-18T03:54:14;14.00;1.00
15003;DHT22;7597;53.590;10.020;2022-07-18T03:56:41;14.00;1.00
15003;DHT22;7597;53.590;10.020;2022-07-18T03:59:07;14.00;1.00
15003;DHT22;7597;53.590;10.020;2022-07-18T04:01:34;14.10;1.00
15003;DHT22;7597;53.590;10.020;2022-07-18T04:04:01;14.10;1.00
15003;DHT22;7597;53.590;10.020;2022-07-18T04:06:27;14.20;1.00
15003;DHT22;7597;53.590;10.020;2022-07-18T04:08:54;14.30;1.00
15003;DHT22;7597;53.590;10.020;2022-07-18T04:11:21;14.30;1.00
15003;DHT22;7597;53.590;10.020;2022-07-18T04:13:47;14.40;1.00
15003;DHT22;7597;53.590;10.020;2022-07-18T04:16:14;14.40;1.00
15003;DHT22;7597;53.590;10.020;2022-07-18T04:18:40;14.50;1.00
15003;DHT22;7597;53.590;10.020;2022-07-18T04:21:08;14.60;1.00
15003;DHT22;7597;53.590;10.020;2022-07-18T04:23:35;14.70;1.00
15003;DHT22;7597;53.590;10.020;2022-07-18T04:26:01;14.70;1.00
15003;DHT22;7597;53.590;10.020;2022-07-18T04:28:28;14.80;1.00
15003;DHT22;7597;53.590;10.020;2022-07-18T04:30:55;14.80;1.00
15003;DHT22;7597;53.590;10.020;2022-07-18T04:33:21;14.80;1.00
15003;DHT22;7597;53.590;10.020;2022-07-18T04:35:48;14.90;1.00
15003;DHT22;7597;53.590;10.020;2022-07-18T04:38:15;14.90;1.00
15003;DHT22;7597;53.590;10.020;2022-07-18T04:40:41;14.90;1.00
15003;DHT22;7597;53.590;10.020;2022-07-18T04:43:08;14.90;1.00
15003;DHT22;7597;53.590;10.020;2022-07-18T04:45:35;14.90;1.00
15003;DHT22;7597;53.590;10.020;2022-07-18T04:48:03;14.90;1.00
15003;DHT22;7597;53.590;10.020;2022-07-18T04:50:28;15.00;1.00
15003;DHT22;7597;53.590;10.020;2022-07-18T04:52:55;15.00;1.00
15003;DHT22;7597;53.590;10.020;2022-07-18T04:55:21;15.10;1.00
15003;DHT22;7597;53.590;10.020;2022-07-18T04:57:48;15.20;1.00
15003;DHT22;7597;53.590;10.020;2022-07-18T05:00:20;15.30;1.00
15003;DHT22;7597;53.590;10.020;2022-07-18T05:02:44;15.50;1.00
15003;DHT22;7597;53.590;10.020;2022-07-18T05:05:10;15.70;1.00
15003;DHT22;7597;53.590;10.020;2022-07-18T05:07:36;15.80;1.00
15003;DHT22;7597;53.590;10.020;2022-07-18T05:10:03;16.00;1.00
15003;DHT22;7597;53.590;10.020;2022-07-18T05:12:30;16.00;1.00
15003;DHT22;7597;53.590;10.020;2022-07-18T05:14:56;16.00;1.00
15003;DHT22;7597;53.590;10.020;2022-07-18T05:17:23;16.10;1.00
15003;DHT22;7597;53.590;10.020;2022-07-18T05:19:50;16.40;1.00
15003;DHT22;7597;53.590;10.020;2022-07-18T05:22:17;16.40;1.00
15003;DHT22;7597;53.590;10.020;2022-07-18T05:24:44;16.60;1.00
15003;DHT22;7597;53.590;10.020;2022-07-18T05:27:11;16.90;1.00
15003;DHT22;7597;53.590;10.020;2022-07-18T05:29:38;16.80;1.00
15003;DHT22;7597;53.590;10.020;2022-07-18T05:32:05;16.90;1.00
15003;DHT22;7597;53.590;10.020;2022-07-18T05:34:32;17.00;1.00
15003;DHT22;7597;53.590;10.020;2022-07-18T05:36:59;17.20;1.00
15003;DHT22;7597;53.590;10.020;2022-07-18T05:39:25;17.10;1.00
15003;DHT22;7597;53.590;10.020;2022-07-18T05:41:52;17.10;1.00
15003;DHT22;7597;53.590;10.020;2022-07-18T05:44:19;17.00;1.00
15003;DHT22;7597;53.590;10.020;2022-07-18T05:46:47;17.00;1.00
15003;DHT22;7597;53.590;10.020;2022-07-18T05:49:19;17.00;1.00
15003;DHT22;7597;53.590;10.020;2022-07-18T05:51:46;17.00;1.00
15003;DHT22;7597;53.590;10.020;2022-07-18T05:54:14;17.20;1.00
15003;DHT22;7597;53.590;10.020;2022-07-18T05:56:47;17.10;1.00
15003;DHT22;7597;53.590;10.020;2022-07-18T05:59:13;17.40;1.00
15003;DHT22;7597;53.590;10.020;2022-07-18T06:01:40;17.60;1.00
15003;DHT22;7597;53.590;10.020;2022-07-18T06:04:07;17.90;1.00
15003;DHT22;7597;53.590;10.020;2022-07-18T06:06:33;18.40;1.00
15003;DHT22;7597;53.590;10.020;2022-07-18T06:09:00;18.80;1.00
15003;DHT22;7597;53.590;10.020;2022-07-18T06:11:26;19.00;1.00
15003;DHT22;7597;53.590;10.020;2022-07-18T06:13:53;19.40;1.00
15003;DHT22;7597;53.590;10.020;2022-07-18T06:16:20;19.60;1.00
15003;DHT22;7597;53.590;10.020;2022-07-18T06:18:46;19.90;1.00
15003;DHT22;7597;53.590;10.020;2022-07-18T06:21:13;20.20;1.00
15003;DHT22;7597;53.590;10.020;2022-07-18T06:23:40;20.50;1.00
15003;DHT22;7597;53.590;10.020;2022-07-18T06:26:06;20.50;1.00
15003;DHT22;7597;53.590;10.020;2022-07-18T06:28:33;20.70;1.00
15003;DHT22;7597;53.590;10.020;2022-07-18T06:31:00;20.90;1.00
15003;DHT22;7597;53.590;10.020;2022-07-18T06:33:26;20.80;1.00
15003;DHT22;7597;53.590;10.020;2022-07-18T06:35:53;21.10;1.00
15003;DHT22;7597;53.590;10.020;2022-07-18T06:38:20;21.00;1.00
15003;DHT22;7597;53.590;10.020;2022-07-18T06:40:47;20.90;1.00
15003;DHT22;7597;53.590;10.020;2022-07-18T06:43:13;21.00;1.00
15003;DHT22;7597;53.590;10.020;2022-07-18T06:45:40;21.40;1.00
15003;DHT22;7597;53.590;10.020;2022-07-18T06:48:07;21.70;1.00
15003;DHT22;7597;53.590;10.020;2022-07-18T06:50:33;21.60;1.00
15003;DHT22;7597;53.590;10.020;2022-07-18T06:53:00;21.40;1.00
15003;DHT22;7597;53.590;10.020;2022-07-18T06:55:27;21.40;1.00
15003;DHT22;7597;53.590;10.020;2022-07-18T06:57:53;21.30;1.00
15003;DHT22;7597;53.590;10.020;2022-07-18T07:00:20;21.40;1.00
15003;DHT22;7597;53.590;10.020;2022-07-18T07:02:48;21.20;1.00
15003;DHT22;7597;53.590;10.020;2022-07-18T07:05:14;21.20;1.00
15003;DHT22;7597;53.590;10.020;2022-07-18T07:07:40;21.30;1.00
15003;DHT22;7597;53.590;10.020;2022-07-18T07:10:08;21.40;1.00
15003;DHT22;7597;53.590;10.020;2022-07-18T07:12:39;21.30;1.00
15003;DHT22;7597;53.590;10.020;2022-07-18T07:15:06;21.20;1.00
15003;DHT22;7597;53.590;10.020;2022-07-18T07:17:32;22.10;1.00
15003;DHT22;7597;53.590;10.020;2022-07-18T07:20:00;23.00;1.00
15003;DHT22;7597;53.590;10.020;2022-07-18T07:22:27;24.10;1.00
15003;DHT22;7597;53.590;10.020;2022-07-18T07:24:53;24.50;1.00
15003;DHT22;7597;53.590;10.020;2022-07-18T07:27:20;24.50;1.00
15003;DHT22;7597;53.590;10.020;2022-07-18T07:29:47;24.40;1.00
15003;DHT22;7597;53.590;10.020;2022-07-18T07:32:13;23.80;1.00
15003;DHT22;7597;53.590;10.020;2022-07-18T07:34:40;23.40;1.00
15003;DHT22;7597;53.590;10.020;2022-07-18T07:37:07;23.80;1.00
15003;DHT22;7597;53.590;10.020;2022-07-18T07:39:33;24.50;1.00
15003;DHT22;7597;53.590;10.020;2022-07-18T07:42:00;25.00;1.00
15003;DHT22;7597;53.590;10.020;2022-07-18T07:44:27;25.00;1.00
15003;DHT22;7597;53.590;10.020;2022-07-18T07:46:53;24.70;1.00
15003;DHT22;7597;53.590;10.020;2022-07-18T07:49:20;24.70;1.00
15003;DHT22;7597;53.590;10.020;2022-07-18T07:51:47;24.80;1.00
15003;DHT22;7597;53.590;10.020;2022-07-18T07:54:13;25.10;1.00
15003;DHT22;7597;53.590;10.020;2022-07-18T07:56:40;25.40;1.00
15003;DHT22;7597;53.590;10.020;2022-07-18T07:59:07;25.80;1.00
15003;DHT22;7597;53.590;10.020;2022-07-18T08:01:33;25.70;1.00
15003;DHT22;7597;53.590;10.020;2022-07-18T08:04:00;26.60;1.00
15003;DHT22;7597;53.590;10.020;2022-07-18T08:06:27;27.50;1.00
15003;DHT22;7597;53.590;10.020;2022-07-18T08:08:53;28.20;1.00
15003;DHT22;7597;53.590;10.020;2022-07-18T08:11:20;28.00;1.00
15003;DHT22;7597;53.590;10.020;2022-07-18T08:13:47;27.70;1.00
15003;DHT22;7597;53.590;10.020;2022-07-18T08:16:13;27.40;1.00
15003;DHT22;7597;53.590;10.020;2022-07-18T08:18:40;27.60;1.00
15003;DHT22;7597;53.590;10.020;2022-07-18T08:21:06;27.70;1.00
15003;DHT22;7597;53.590;10.020;2022-07-18T08:23:33;27.40;1.00
15003;DHT22;7597;53.590;10.020;2022-07-18T08:26:00;27.60;1.00
15003;DHT22;7597;53.590;10.020;2022-07-18T08:28:26;27.90;1.00
15003;DHT22;7597;53.590;10.020;2022-07-18T08:30:53;28.70;1.00
15003;DHT22;7597;53.590;10.020;2022-07-18T08:33:20;27.90;1.00
15003;DHT22;7597;53.590;10.020;2022-07-18T08:35:46;26.80;1.00
15003;DHT22;7597;53.590;10.020;2022-07-18T08:38:13;26.50;1.00
15003;DHT22;7597;53.590;10.020;2022-07-18T08:40:40;26.60;1.00
15003;DHT22;7597;53.590;10.020;2022-07-18T08:43:06;26.80;1.00
15003;DHT22;7597;53.590;10.020;2022-07-18T08:45:33;27.10;1.00
15003;DHT22;7597;53.590;10.020;2022-07-18T08:48:00;27.10;1.00
15003;DHT22;7597;53.590;10.020;2022-07-18T08:50:26;27.60;1.00
15003;DHT22;7597;53.590;10.020;2022-07-18T08:52:53;28.30;1.00
15003;DHT22;7597;53.590;10.020;2022-07-18T08:55:20;28.80;1.00
15003;DHT22;7597;53.590;10.020;2022-07-18T08:57:46;29.40;1.00
15003;DHT22;7597;53.590;10.020;2022-07-18T09:00:13;29.70;1.00
15003;DHT22;7597;53.590;10.020;2022-07-18T09:02:40;29.80;1.00
15003;DHT22;7597;53.590;10.020;2022-07-18T09:05:16;29.50;1.00
15003;DHT22;7597;53.590;10.020;2022-07-18T09:07:34;29.70;1.00
15003;DHT22;7597;53.590;10.020;2022-07-18T09:10:03;29.90;1.00
15003;DHT22;7597;53.590;10.020;2022-07-18T09:12:29;30.10;1.00
15003;DHT22;7597;53.590;10.020;2022-07-18T09:15:03;30.70;1.00
15003;DHT22;7597;53.590;10.020;2022-07-18T09:17:25;30.70;1.00
15003;DHT22;7597;53.590;10.020;2022-07-18T09:20:02;30.70;1.00
15003;DHT22;7597;53.590;10.020;2022-07-18T09:22:29;31.20;1.00
15003;DHT22;7597;53.590;10.020;2022-07-18T09:24:59;30.80;1.00
15003;DHT22;7597;53.590;10.020;2022-07-18T09:27:25;30.80;1.00
15003;DHT22;7597;53.590;10.020;2022-07-18T09:32:29;30.80;1.00
15003;DHT22;7597;53.590;10.020;2022-07-18T09:34:56;31.50;1.00
15003;DHT22;7597;53.590;10.020;2022-07-18T09:37:23;32.60;1.00
15003;DHT22;7597;53.590;10.020;2022-07-18T09:39:49;32.20;1.00
15003;DHT22;7597;53.590;10.020;2022-07-18T09:42:17;32.90;1.00
15003;DHT22;7597;53.590;10.020;2022-07-18T09:44:56;33.70;1.00
15003;DHT22;7597;53.590;10.020;2022-07-18T09:47:10;33.10;1.00
15003;DHT22;7597;53.590;10.020;2022-07-18T09:49:37;33.00;1.00
15003;DHT22;7597;53.590;10.020;2022-07-18T09:52:05;32.40;1.00
15003;DHT22;7597;53.590;10.020;2022-07-18T09:54:40;33.40;1.00
15003;DHT22;7597;53.590;10.020;2022-07-18T09:57:05;33.80;1.00
15003;DHT22;7597;53.590;10.020;2022-07-18T09:59:32;33.10;1.00
15003;DHT22;7597;53.590;10.020;2022-07-18T10:01:59;33.80;1.00
15003;DHT22;7597;53.590;10.020;2022-07-18T10:04:26;33.80;1.00
15003;DHT22;7597;53.590;10.020;2022-07-18T10:06:52;33.50;1.00
15003;DHT22;7597;53.590;10.020;2022-07-18T10:09:19;31.70;1.00
15003;DHT22;7597;53.590;10.020;2022-07-18T10:11:46;31.40;1.00
15003;DHT22;7597;53.590;10.020;2022-07-18T10:14:12;31.20;1.00
15003;DHT22;7597;53.590;10.020;2022-07-18T10:16:39;31.30;1.00
15003;DHT22;7597;53.590;10.020;2022-07-18T10:19:06;31.20;1.00
15003;DHT22;7597;53.590;10.020;2022-07-18T10:21:32;31.90;1.00
15003;DHT22;7597;53.590;10.020;2022-07-18T10:23:59;32.70;1.00
15003;DHT22;7597;53.590;10.020;2022-07-18T10:26:26;33.20;1.00
15003;DHT22;7597;53.590;10.020;2022-07-18T10:29:17;33.70;1.00
15003;DHT22;7597;53.590;10.020;2022-07-18T10:32:04;33.80;1.00
15003;DHT22;7597;53.590;10.020;2022-07-18T10:34:32;34.00;1.00
15003;DHT22;7597;53.590;10.020;2022-07-18T10:37:12;34.10;1.00
15003;DHT22;7597;53.590;10.020;2022-07-18T10:39:40;33.80;1.00
15003;DHT22;7597;53.590;10.020;2022-07-18T10:42:16;34.10;1.00
15003;DHT22;7597;53.590;10.020;2022-07-18T10:44:42;33.00;1.00
15003;DHT22;7597;53.590;10.020;2022-07-18T10:47:10;33.60;1.00
15003;DHT22;7597;53.590;10.020;2022-07-18T10:50:02;33.20;1.00
15003;DHT22;7597;53.590;10.020;2022-07-18T10:52:55;32.50;1.00
15003;DHT22;7597;53.590;10.020;2022-07-18T10:55:29;32.30;1.00
15003;DHT22;7597;53.590;10.020;2022-07-18T11:00:43;31.30;1.00
15003;DHT22;7597;53.590;10.020;2022-07-18T11:03:10;31.10;1.00
15003;DHT22;7597;53.590;10.020;2022-07-18T11:05:42;30.50;1.00
15003;DHT22;7597;53.590;10.020;2022-07-18T11:08:16;30.60;1.00
15003;DHT22;7597;53.590;10.020;2022-07-18T11:11:06;30.80;1.00
15003;DHT22;7597;53.590;10.020;2022-07-18T11:13:34;30.90;1.00
15003;DHT22;7597;53.590;10.020;2022-07-18T11:16:20;30.20;1.00
15003;DHT22;7597;53.590;10.020;2022-07-18T11:19:16;29.90;1.00
15003;DHT22;7597;53.590;10.020;2022-07-18T11:21:42;29.80;1.00
15003;DHT22;7597;53.590;10.020;2022-07-18T11:24:10;29.70;1.00
15003;DHT22;7597;53.590;10.020;2022-07-18T11:26:38;29.40;1.00
15003;DHT22;7597;53.590;10.020;2022-07-18T11:29:06;29.30;1.00
15003;DHT22;7597;53.590;10.020;2022-07-18T11:31:32;29.00;1.00
15003;DHT22;7597;53.590;10.020;2022-07-18T11:33:59;28.90;1.00
15003;DHT22;7597;53.590;10.020;2022-07-18T11:36:29;29.10;1.00
15003;DHT22;7597;53.590;10.020;2022-07-18T11:38:55;29.30;1.00
15003;DHT22;7597;53.590;10.020;2022-07-18T11:41:21;29.30;1.00
15003;DHT22;7597;53.590;10.020;2022-07-18T11:43:48;29.30;1.00
15003;DHT22;7597;53.590;10.020;2022-07-18T11:46:15;29.50;1.00
15003;DHT22;7597;53.590;10.020;2022-07-18T11:48:43;29.80;1.00
15003;DHT22;7597;53.590;10.020;2022-07-18T11:51:10;29.80;1.00
15003;DHT22;7597;53.590;10.020;2022-07-18T11:53:41;29.80;1.00
15003;DHT22;7597;53.590;10.020;2022-07-18T11:56:04;29.80;1.00
15003;DHT22;7597;53.590;10.020;2022-07-18T11:58:35;30.40;1.00
15003;DHT22;7597;53.590;10.020;2022-07-18T12:01:01;30.10;1.00
15003;DHT22;7597;53.590;10.020;2022-07-18T12:03:28;30.60;1.00
15003;DHT22;7597;53.590;10.020;2022-07-18T12:05:54;29.90;1.00
15003;DHT22;7597;53.590;10.020;2022-07-18T12:08:27;29.80;1.00
15003;DHT22;7597;53.590;10.020;2022-07-18T12:11:02;29.60;1.00
15003;DHT22;7597;53.590;10.020;2022-07-18T12:13:38;29.90;1.00
15003;DHT22;7597;53.590;10.020;2022-07-18T12:15:55;29.20;1.00
15003;DHT22;7597;53.590;10.020;2022-07-18T12:18:28;29.40;1.00
15003;DHT22;7597;53.590;10.020;2022-07-18T12:21:07;30.00;1.00
15003;DHT22;7597;53.590;10.020;2022-07-18T12:23:32;29.80;1.00
15003;DHT22;7597;53.590;10.020;2022-07-18T12:25:59;29.80;1.00
15003;DHT22;7597;53.590;10.020;2022-07-18T12:28:26;30.40;1.00
15003;DHT22;7597;53.590;10.020;2022-07-18T12:30:52;30.90;1.00
15003;DHT22;7597;53.590;10.020;2022-07-18T12:33:19;30.90;1.00
15003;DHT22;7597;53.590;10.020;2022-07-18T12:35:48;30.90;1.00
15003;DHT22;7597;53.590;10.020;2022-07-18T12:38:14;31.40;1.00
15003;DHT22;7597;53.590;10.020;2022-07-18T12:40:48;31.40;1.00
15003;DHT22;7597;53.590;10.020;2022-07-18T12:43:28;31.40;1.00
15003;DHT22;7597;53.590;10.020;2022-07-18T12:45:54;31.00;1.00
15003;DHT22;7597;53.590;10.020;2022-07-18T12:48:26;31.20;1.00
15003;DHT22;7597;53.590;10.020;2022-07-18T12:50:57;31.20;1.00
15003;DHT22;7597;53.590;10.020;2022-07-18T12:53:23;31.10;1.00
15003;DHT22;7597;53.590;10.020;2022-07-18T12:55:50;31.40;1.00
15003;DHT22;7597;53.590;10.020;2022-07-18T12:58:16;31.30;1.00
15003;DHT22;7597;53.590;10.020;2022-07-18T13:00:43;31.20;1.00
15003;DHT22;7597;53.590;10.020;2022-07-18T13:03:10;31.40;1.00
15003;DHT22;7597;53.590;10.020;2022-07-18T13:05:36;31.70;1.00
15003;DHT22;7597;53.590;10.020;2022-07-18T13:08:04;31.60;1.00
15003;DHT22;7597;53.590;10.020;2022-07-18T13:10:32;31.60;1.00
15003;DHT22;7597;53.590;10.020;2022-07-18T13:13:02;31.30;1.00
15003;DHT22;7597;53.590;10.020;2022-07-18T13:15:28;31.20;1.00
15003;DHT22;7597;53.590;10.020;2022-07-18T13:17:55;31.30;1.00
15003;DHT22;7597;53.590;10.020;2022-07-18T13:20:21;31.50;1.00
15003;DHT22;7597;53.590;10.020;2022-07-18T13:22:48;32.00;1.00
15003;DHT22;7597;53.590;10.020;2022-07-18T13:25:15;32.10;1.00
15003;DHT22;7597;53.590;10.020;2022-07-18T13:27:41;31.90;1.00
15003;DHT22;7597;53.590;10.020;2022-07-18T13:30:09;31.90;1.00
15003;DHT22;7597;53.590;10.020;2022-07-18T13:32:39;31.50;1.00
15003;DHT22;7597;53.590;10.020;2022-07-18T13:35:07;31.50;1.00
15003;DHT22;7597;53.590;10.020;2022-07-18T13:37:35;31.60;1.00
15003;DHT22;7597;53.590;10.020;2022-07-18T13:40:02;31.60;1.00
15003;DHT22;7597;53.590;10.020;2022-07-18T13:42:29;31.30;1.00
15003;DHT22;7597;53.590;10.020;2022-07-18T13:44:56;31.20;1.00
15003;DHT22;7597;53.590;10.020;2022-07-18T13:47:22;31.10;1.00
15003;DHT22;7597;53.590;10.020;2022-07-18T13:49:50;31.20;1.00
15003;DHT22;7597;53.590;10.020;2022-07-18T13:52:17;31.10;1.00
15003;DHT22;7597;53.590;10.020;2022-07-18T13:54:43;31.20;1.00
15003;DHT22;7597;53.590;10.020;2022-07-18T13:57:10;31.30;1.00
15003;DHT22;7597;53.590;10.020;2022-07-18T13:59:37;31.30;1.00
15003;DHT22;7597;53.590;10.020;2022-07-18T14:02:03;31.40;1.00
15003;DHT22;7597;53.590;10.020;2022-07-18T14:04:30;31.90;1.00
15003;DHT22;7597;53.590;10.020;2022-07-18T14:06:57;32.20;1.00
15003;DHT22;7597;53.590;10.020;2022-07-18T14:09:23;32.50;1.00
15003;DHT22;7597;53.590;10.020;2022-07-18T14:11:50;32.80;1.00
15003;DHT22;7597;53.590;10.020;2022-07-18T14:14:17;33.40;1.00
15003;DHT22;7597;53.590;10.020;2022-07-18T14:16:43;33.10;1.00
15003;DHT22;7597;53.590;10.020;2022-07-18T14:19:10;33.00;1.00
15003;DHT22;7597;53.590;10.020;2022-07-18T14:21:37;32.90;1.00
15003;DHT22;7597;53.590;10.020;2022-07-18T14:24:04;33.40;1.00
15003;DHT22;7597;53.590;10.020;2022-07-18T14:26:31;32.90;1.00
15003;DHT22;7597;53.590;10.020;2022-07-18T14:28:58;33.00;1.00
15003;DHT22;7597;53.590;10.020;2022-07-18T14:31:24;33.00;1.00
15003;DHT22;7597;53.590;10.020;2022-07-18T14:33:51;32.80;1.00
15003;DHT22;7597;53.590;10.020;2022-07-18T14:36:18;32.70;1.00
15003;DHT22;7597;53.590;10.020;2022-07-18T14:38:45;32.90;1.00
15003;DHT22;7597;53.590;10.020;2022-07-18T14:41:12;33.20;1.00
15003;DHT22;7597;53.590;10.020;2022-07-18T14:43:39;32.90;1.00
15003;DHT22;7597;53.590;10.020;2022-07-18T14:46:06;32.80;1.00
15003;DHT22;7597;53.590;10.020;2022-07-18T14:48:34;32.40;1.00
15003;DHT22;7597;53.590;10.020;2022-07-18T14:51:02;31.70;1.00
15003;DHT22;7597;53.590;10.020;2022-07-18T14:53:33;31.80;1.00
15003;DHT22;7597;53.590;10.020;2022-07-18T14:55:59;31.60;1.00
15003;DHT22;7597;53.590;10.020;2022-07-18T14:58:27;31.50;1.00
15003;DHT22;7597;53.590;10.020;2022-07-18T15:00:54;31.20;1.00
15003;DHT22;7597;53.590;10.020;2022-07-18T15:03:21;31.10;1.00
15003;DHT22;7597;53.590;10.020;2022-07-18T15:05:50;31.00;1.00
15003;DHT22;7597;53.590;10.020;2022-07-18T15:08:17;31.70;1.00
15003;DHT22;7597;53.590;10.020;2022-07-18T15:10:46;30.90;1.00
15003;DHT22;7597;53.590;10.020;2022-07-18T15:13:13;31.00;1.00
15003;DHT22;7597;53.590;10.020;2022-07-18T15:15:40;31.60;1.00
15003;DHT22;7597;53.590;10.020;2022-07-18T15:18:06;32.20;1.00
15003;DHT22;7597;53.590;10.020;2022-07-18T15:20:33;32.60;1.00
15003;DHT22;7597;53.590;10.020;2022-07-18T15:23:03;33.10;1.00
15003;DHT22;7597;53.590;10.020;2022-07-18T15:25:31;33.20;1.00
15003;DHT22;7597;53.590;10.020;2022-07-18T15:27:58;33.10;1.00
15003;DHT22;7597;53.590;10.020;2022-07-18T15:30:25;33.10;1.00
15003;DHT22;7597;53.590;10.020;2022-07-18T15:32:51;33.40;1.00
15003;DHT22;7597;53.590;10.020;2022-07-18T15:35:21;33.10;1.00
15003;DHT22;7597;53.590;10.020;2022-07-18T15:37:48;32.50;1.00
15003;DHT22;7597;53.590;10.020;2022-07-18T15:40:16;32.60;1.00
15003;DHT22;7597;53.590;10.020;2022-07-18T15:42:42;32.50;1.00
15003;DHT22;7597;53.590;10.020;2022-07-18T15:45:09;32.80;1.00
15003;DHT22;7597;53.590;10.020;2022-07-18T15:47:38;33.20;1.00
15003;DHT22;7597;53.590;10.020;2022-07-18T15:50:05;33.10;1.00
15003;DHT22;7597;53.590;10.020;2022-07-18T15:52:35;32.70;1.00